Time;durP1;ratioP1;P1;durP2;ratioP2;P2;SDS_P1;SDS_P2;PMS_P1;PMS_P2;Temp;Humidity;BMP_temperature;BMP_pressure;BME280_temperature;BME280_humidity;BME280_pressure;Samples;Min_cycle;Max_cycle;Signal;HPM_P1;HPM_P2
2021/01/14 00:02:05;;;;;;;13.30;4.00;;;1.40;99.90;;;;;;4987310;28;20030;-59
2021/01/14 00:04:31;;;;;;;14.00;4.13;;;1.50;99.90;;;;;;4988576;28;20030;-62
2021/01/14 00:06:58;;;;;;;17.15;4.30;;;1.40;99.90;;;;;;4987155;28;20026;-56
2021/01/14 00:09:24;;;;;;;14.40;4.43;;;1.40;99.90;;;;;;4987954;28;20018;-60
2021/01/14 00:11:50;;;;;;;17.58;4.50;;;1.40;99.90;;;;;;4987904;28;20564;-59
2021/01/14 00:14:16;;;;;;;17.42;4.20;;;1.40;99.90;;;;;;4988687;28;20034;-57
2021/01/14 00:16:41;;;;;;;13.80;4.07;;;1.30;99.90;;;;;;4988771;28;20045;-63
2021/01/14 00:19:07;;;;;;;17.80;5.25;;;1.30;99.90;;;;;;4987722;28;20026;-59
2021/01/14 00:21:43;;;;;;;16.95;5.35;;;1.20;99.90;;;;;;4988365;28;20042;-62
2021/01/14 00:24:09;;;;;;;14.95;4.28;;;1.20;99.90;;;;;;4988786;28;20083;-62
2021/01/14 00:26:36;;;;;;;15.73;4.20;;;1.20;99.90;;;;;;4990509;28;20030;-57
2021/01/14 00:29:04;;;;;;;15.75;4.40;;;1.10;99.90;;;;;;4992227;28;20027;-60
2021/01/14 00:31:30;;;;;;;14.15;3.88;;;1.10;99.90;;;;;;4984338;28;20371;-60
2021/01/14 00:33:56;;;;;;;16.17;6.10;;;1.10;99.90;;;;;;4972215;28;20030;-57
2021/01/14 00:36:32;;;;;;;14.38;4.40;;;1.10;99.90;;;;;;4983512;28;20030;-59
2021/01/14 00:39:00;;;;;;;16.88;4.20;;;1.10;99.90;;;;;;4992112;28;20759;-61
2021/01/14 00:41:27;;;;;;;14.43;5.40;;;1.20;99.90;;;;;;4993093;28;20031;-62
2021/01/14 00:43:53;;;;;;;15.50;4.80;;;1.10;99.90;;;;;;4991617;28;20521;-58
2021/01/14 00:46:20;;;;;;;11.77;3.90;;;1.10;99.90;;;;;;4991409;28;20042;-62
2021/01/14 00:48:46;;;;;;;14.45;3.80;;;1.10;99.90;;;;;;4991793;28;20124;-60
2021/01/14 00:51:13;;;;;;;11.75;4.20;;;1.10;99.90;;;;;;5031230;23;20057;-58
2021/01/14 00:53:39;;;;;;;20.23;4.93;;;1.10;99.90;;;;;;5014610;28;20099;-57
2021/01/14 00:56:05;;;;;;;11.07;4.03;;;1.10;99.90;;;;;;4996064;28;20025;-59
2021/01/14 00:58:33;;;;;;;11.57;3.75;;;1.10;99.90;;;;;;5018159;28;20040;-58
2021/01/14 01:00:59;;;;;;;12.90;3.45;;;1.10;99.90;;;;;;5013522;28;20026;-57
2021/01/14 01:03:25;;;;;;;14.48;4.10;;;1.20;99.90;;;;;;5013643;28;20034;-58
2021/01/14 01:05:50;;;;;;;14.18;3.55;;;1.20;99.90;;;;;;5012024;28;20084;-59
2021/01/14 01:08:16;;;;;;;12.40;4.03;;;1.20;99.90;;;;;;5011891;28;20066;-57
2021/01/14 01:10:42;;;;;;;15.00;3.30;;;1.20;99.90;;;;;;5014073;28;20053;-57
2021/01/14 01:13:07;;;;;;;13.13;3.40;;;1.10;99.90;;;;;;5015378;28;20041;-57
2021/01/14 01:15:33;;;;;;;15.32;4.57;;;1.10;99.90;;;;;;5014208;28;20022;-56
2021/01/14 01:17:58;;;;;;;10.68;3.42;;;1.00;99.90;;;;;;5015511;28;20030;-58
2021/01/14 01:20:24;;;;;;;12.77;3.40;;;1.10;99.90;;;;;;5015209;28;20057;-60
2021/01/14 01:22:50;;;;;;;14.70;4.38;;;1.00;99.90;;;;;;5016333;28;20025;-60
2021/01/14 01:25:16;;;;;;;11.55;3.83;;;1.10;99.90;;;;;;5015911;28;20121;-58
2021/01/14 01:27:41;;;;;;;15.35;4.53;;;1.10;99.90;;;;;;5015536;28;20025;-57
2021/01/14 01:30:08;;;;;;;13.05;3.75;;;1.10;99.90;;;;;;5014844;28;20440;-58
2021/01/14 01:32:34;;;;;;;14.90;3.60;;;1.10;99.90;;;;;;5013517;28;20117;-55
2021/01/14 01:35:00;;;;;;;12.07;3.35;;;1.10;99.90;;;;;;5015169;28;20486;-56
2021/01/14 01:37:26;;;;;;;14.00;3.65;;;1.10;99.90;;;;;;5014332;28;20045;-56
2021/01/14 01:39:51;;;;;;;15.18;3.60;;;1.10;99.90;;;;;;5014132;28;20018;-56
2021/01/14 01:42:17;;;;;;;19.25;3.90;;;1.10;99.90;;;;;;5013378;28;20037;-58
2021/01/14 01:44:43;;;;;;;11.02;3.25;;;1.10;99.90;;;;;;5013194;28;20405;-57
2021/01/14 01:47:09;;;;;;;13.13;4.25;;;1.20;99.90;;;;;;5014627;28;20037;-57
2021/01/14 01:49:36;;;;;;;17.52;4.75;;;1.10;99.90;;;;;;5013847;28;20462;-57
2021/01/14 01:52:04;;;;;;;12.43;3.80;;;1.10;99.90;;;;;;5013390;28;20458;-55
2021/01/14 01:54:34;;;;;;;16.13;4.07;;;1.10;99.90;;;;;;5014576;28;20026;-58
2021/01/14 01:57:05;;;;;;;12.80;3.58;;;1.00;99.90;;;;;;5014626;28;20057;-58
2021/01/14 01:59:31;;;;;;;13.35;4.07;;;1.00;99.90;;;;;;5012102;28;20053;-57
2021/01/14 02:01:58;;;;;;;16.40;4.57;;;0.90;99.90;;;;;;5013127;28;20038;-57
2021/01/14 02:04:24;;;;;;;12.32;3.67;;;0.90;99.90;;;;;;5014189;28;20030;-60
2021/01/14 02:07:01;;;;;;;15.00;3.80;;;1.00;99.90;;;;;;5014388;28;20025;-57
2021/01/14 02:09:26;;;;;;;18.33;4.63;;;1.00;99.90;;;;;;5013449;28;20087;-56
2021/01/14 02:12:05;;;;;;;18.55;4.28;;;1.00;99.90;;;;;;5014241;28;20018;-55
2021/01/14 02:14:34;;;;;;;12.98;3.60;;;0.90;99.90;;;;;;5013863;28;20075;-59
2021/01/14 02:16:59;;;;;;;13.18;3.85;;;0.80;99.90;;;;;;5014218;28;20030;-61
2021/01/14 02:19:44;;;;;;;13.38;4.97;;;0.90;99.90;;;;;;5011990;28;20063;-56
2021/01/14 02:22:18;;;;;;;15.30;3.70;;;0.90;99.90;;;;;;5012519;28;20040;-57
2021/01/14 02:25:09;;;;;;;16.30;4.20;;;0.90;99.90;;;;;;5014060;28;20464;-58
2021/01/14 02:27:36;;;;;;;15.05;4.20;;;0.90;99.90;;;;;;5012446;28;20493;-56
2021/01/14 02:30:08;;;;;;;9.98;3.40;;;0.70;99.90;;;;;;5012865;28;20358;-56
2021/01/14 02:32:33;;;;;;;9.23;3.35;;;0.50;99.90;;;;;;5012911;28;20078;-59
2021/01/14 02:35:01;;;;;;;14.38;3.45;;;0.50;99.90;;;;;;5013574;28;20061;-58
2021/01/14 02:37:27;;;;;;;14.38;4.03;;;0.50;99.90;;;;;;5012125;28;20612;-55
2021/01/14 02:39:52;;;;;;;13.10;3.60;;;0.40;99.90;;;;;;5011881;28;20058;-57
2021/01/14 02:42:18;;;;;;;15.25;3.80;;;0.40;99.90;;;;;;5012239;28;20092;-59
2021/01/14 02:44:43;;;;;;;14.05;3.75;;;0.40;99.90;;;;;;5012568;28;20058;-56
2021/01/14 02:47:12;;;;;;;19.83;4.50;;;0.30;99.90;;;;;;5013633;28;20030;-58
2021/01/14 02:50:01;;;;;;;14.60;3.90;;;0.30;99.90;;;;;;5011163;28;20022;-56
2021/01/14 02:52:28;;;;;;;15.38;3.60;;;0.30;99.90;;;;;;5013648;28;20036;-59
2021/01/14 02:54:56;;;;;;;15.23;3.30;;;0.30;99.90;;;;;;5012144;28;20061;-57
2021/01/14 02:57:25;;;;;;;19.73;4.25;;;0.20;99.90;;;;;;5012005;28;20026;-58
2021/01/14 02:59:53;;;;;;;10.50;3.17;;;0.20;99.90;;;;;;5013048;28;20067;-57
2021/01/14 03:02:19;;;;;;;11.77;3.35;;;0.10;99.90;;;;;;5013285;28;20025;-58
2021/01/14 03:04:45;;;;;;;13.82;4.18;;;0.20;99.90;;;;;;5014020;28;20041;-58
2021/01/14 03:07:11;;;;;;;12.30;3.75;;;0.20;99.90;;;;;;4995951;28;20442;-56
2021/01/14 03:09:37;;;;;;;15.18;3.80;;;0.10;99.90;;;;;;5013454;28;20064;-58
2021/01/14 03:12:03;;;;;;;11.77;3.97;;;0.10;99.90;;;;;;5013424;28;20155;-58
2021/01/14 03:14:29;;;;;;;14.75;4.50;;;0.10;99.90;;;;;;5013376;28;20382;-60
2021/01/14 03:16:54;;;;;;;15.25;3.97;;;0.00;99.90;;;;;;5013402;28;20041;-59
2021/01/14 03:19:20;;;;;;;14.65;3.80;;;0.00;99.90;;;;;;5011533;28;20026;-58
2021/01/14 03:21:46;;;;;;;11.40;3.47;;;0.10;99.90;;;;;;5012685;28;20030;-58
2021/01/14 03:24:12;;;;;;;11.38;3.45;;;0.10;99.90;;;;;;5013514;28;20053;-55
2021/01/14 03:26:39;;;;;;;12.35;3.55;;;0.00;99.90;;;;;;5013670;28;20116;-58
2021/01/14 03:29:05;;;;;;;13.40;3.40;;;-0.10;99.90;;;;;;5011842;28;20056;-60
2021/01/14 03:31:30;;;;;;;14.18;3.67;;;0.00;99.90;;;;;;5011796;28;20394;-59
2021/01/14 03:33:56;;;;;;;11.85;3.10;;;0.00;99.90;;;;;;5014167;28;20038;-60
2021/01/14 03:36:22;;;;;;;11.70;3.88;;;0.00;99.90;;;;;;5013106;28;20045;-60
2021/01/14 03:38:48;;;;;;;17.02;4.10;;;-0.10;99.90;;;;;;5011685;28;20052;-57
2021/01/14 03:41:17;;;;;;;14.35;6.10;;;-0.10;99.90;;;;;;5013178;28;20025;-57
2021/01/14 03:43:43;;;;;;;14.05;3.53;;;-0.10;99.90;;;;;;5012590;28;20034;-58
2021/01/14 03:46:14;;;;;;;15.07;3.60;;;0.00;99.90;;;;;;5012604;28;20029;-60
2021/01/14 03:48:44;;;;;;;17.73;4.00;;;0.00;99.90;;;;;;5012944;28;20095;-61
2021/01/14 03:51:20;;;;;;;12.13;3.80;;;-0.10;99.90;;;;;;5013346;28;20517;-58
2021/01/14 03:53:47;;;;;;;17.50;3.92;;;-0.20;99.90;;;;;;5013363;28;20068;-61
2021/01/14 03:56:13;;;;;;;17.70;5.00;;;-0.30;99.90;;;;;;5012875;28;20032;-59
2021/01/14 03:58:38;;;;;;;12.70;3.50;;;-0.30;99.90;;;;;;5010945;28;20030;-58
2021/01/14 04:01:04;;;;;;;14.57;4.43;;;-0.40;99.90;;;;;;5013083;28;20025;-58
2021/01/14 04:03:30;;;;;;;13.45;3.67;;;-0.50;99.90;;;;;;5005406;28;20065;-58
2021/01/14 04:05:56;;;;;;;14.93;3.80;;;-0.60;99.90;;;;;;5012931;28;20096;-60
2021/01/14 04:08:22;;;;;;;15.25;4.57;;;-0.50;99.90;;;;;;5010981;28;20342;-59
2021/01/14 04:10:48;;;;;;;14.45;3.72;;;-0.50;99.90;;;;;;5012541;28;20030;-58
2021/01/14 04:13:14;;;;;;;12.35;4.15;;;-0.50;99.90;;;;;;5011927;28;20033;-58
2021/01/14 04:15:40;;;;;;;13.57;4.57;;;-0.50;99.90;;;;;;5013040;28;20026;-56
2021/01/14 04:18:07;;;;;;;14.02;4.20;;;-0.60;99.90;;;;;;5012562;28;20040;-60
2021/01/14 04:20:33;;;;;;;12.85;4.10;;;-0.50;99.90;;;;;;5012187;28;20026;-58
2021/01/14 04:22:58;;;;;;;16.58;4.40;;;-0.50;99.90;;;;;;5013116;28;20382;-58
2021/01/14 04:25:30;;;;;;;14.23;3.50;;;-0.60;99.90;;;;;;5012813;28;20116;-61
2021/01/14 04:28:01;;;;;;;17.20;4.22;;;-0.70;99.90;;;;;;5010933;28;20033;-59
2021/01/14 04:30:27;;;;;;;19.98;4.18;;;-0.70;99.90;;;;;;5010291;28;20030;-58
2021/01/14 04:33:13;;;;;;;14.50;3.95;;;-0.60;99.90;;;;;;5012471;28;20068;-56
2021/01/14 04:35:54;;;;;;;15.75;4.00;;;-0.50;99.90;;;;;;5012988;28;20041;-59
2021/01/14 04:38:22;;;;;;;13.48;3.60;;;-0.40;99.90;;;;;;5010086;28;20030;-52
2021/01/14 04:40:58;;;;;;;13.52;3.67;;;-0.30;99.90;;;;;;5012762;28;20450;-60
2021/01/14 04:43:25;;;;;;;14.27;3.92;;;-0.40;99.90;;;;;;5012595;28;20033;-57
2021/01/14 04:46:04;;;;;;;10.88;3.20;;;-0.30;99.90;;;;;;5012988;28;20073;-58
2021/01/14 04:48:34;;;;;;;17.15;4.13;;;-0.30;99.90;;;;;;5010775;28;20036;-58
2021/01/14 04:51:07;;;;;;;17.70;3.75;;;-0.40;99.90;;;;;;5012107;28;20022;-59
2021/01/14 04:53:38;;;;;;;16.73;4.00;;;-0.40;99.90;;;;;;5012050;28;20018;-60
2021/01/14 04:56:06;;;;;;;17.08;4.22;;;-0.40;99.90;;;;;;5011696;28;20540;-60
2021/01/14 04:58:34;;;;;;;15.85;4.82;;;-0.40;99.90;;;;;;5009856;28;20065;-59
2021/01/14 05:01:04;;;;;;;13.05;3.88;;;-0.50;99.90;;;;;;5009143;28;20104;-59
2021/01/14 05:03:33;;;;;;;13.75;3.78;;;-0.40;99.90;;;;;;4992551;28;20060;-59
2021/01/14 05:06:01;;;;;;;17.77;4.25;;;-0.60;99.90;;;;;;5007731;28;20029;-59
2021/01/14 05:08:32;;;;;;;18.75;4.63;;;-0.70;99.90;;;;;;5009840;28;20068;-54
2021/01/14 05:11:00;;;;;;;14.77;4.22;;;-0.60;99.90;;;;;;5010417;28;20026;-58
2021/01/14 05:13:29;;;;;;;18.77;4.30;;;-0.70;99.90;;;;;;5014505;28;20048;-61
2021/01/14 05:15:55;;;;;;;15.82;3.70;;;-0.60;99.90;;;;;;5015723;28;20032;-55
2021/01/14 05:18:21;;;;;;;16.63;4.00;;;-0.60;99.90;;;;;;5013426;28;20026;-56
2021/01/14 05:20:47;;;;;;;21.20;4.43;;;-0.60;99.90;;;;;;5013586;28;20389;-56
2021/01/14 05:23:13;;;;;;;17.17;4.18;;;-0.60;99.90;;;;;;5013699;28;20029;-58
2021/01/14 05:25:52;;;;;;;14.13;4.43;;;-0.70;99.90;;;;;;5014891;28;20037;-57
2021/01/14 05:28:19;;;;;;;15.48;4.10;;;-0.70;99.90;;;;;;5014537;28;20032;-60
2021/01/14 05:30:46;;;;;;;13.70;4.10;;;-0.60;99.90;;;;;;5013618;28;20026;-60
2021/01/14 05:33:23;;;;;;;18.70;4.15;;;-0.60;99.90;;;;;;5014904;28;20038;-59
2021/01/14 05:35:52;;;;;;;21.83;4.50;;;-0.50;99.90;;;;;;5015047;28;20026;-59
2021/01/14 05:38:32;;;;;;;15.02;4.43;;;-0.50;99.90;;;;;;5014091;28;20057;-54
2021/01/14 05:41:18;;;;;;;12.50;4.25;;;-0.40;99.90;;;;;;5014419;28;20030;-59
2021/01/14 05:43:47;;;;;;;15.15;5.25;;;-0.50;99.90;;;;;;5013043;28;20088;-57
2021/01/14 05:46:14;;;;;;;15.73;4.55;;;-0.40;99.90;;;;;;5014570;28;20060;-59
2021/01/14 05:48:41;;;;;;;19.23;4.38;;;-0.40;99.90;;;;;;5012590;28;20096;-60
2021/01/14 05:51:18;;;;;;;14.10;4.38;;;-0.40;99.90;;;;;;5012770;28;20034;-61
2021/01/14 05:53:59;;;;;;;12.88;4.22;;;-0.40;99.90;;;;;;5013060;28;20050;-54
2021/01/14 05:56:41;;;;;;;13.27;4.00;;;-0.50;99.90;;;;;;5014246;28;20436;-59
2021/01/14 05:59:12;;;;;;;16.45;4.68;;;-0.50;99.90;;;;;;5013817;28;20440;-58
2021/01/14 06:01:55;;;;;;;17.88;5.18;;;-0.40;99.90;;;;;;5014421;28;20374;-57
2021/01/14 06:04:22;;;;;;;18.10;4.78;;;-0.40;99.90;;;;;;5012097;28;20025;-60
2021/01/14 06:06:50;;;;;;;20.63;4.63;;;-0.30;99.90;;;;;;5012603;28;20022;-57
2021/01/14 06:09:18;;;;;;;16.67;4.27;;;-0.30;99.90;;;;;;5013384;28;20082;-59
2021/01/14 06:11:44;;;;;;;22.52;5.35;;;-0.10;99.90;;;;;;5014045;28;20029;-61
2021/01/14 06:14:30;;;;;;;17.73;4.88;;;-0.10;99.90;;;;;;5014069;28;20036;-56
2021/01/14 06:16:59;;;;;;;19.80;5.18;;;0.00;99.90;;;;;;5014026;28;20050;-59
2021/01/14 06:19:26;;;;;;;14.40;4.07;;;0.10;99.90;;;;;;5014028;28;20529;-58
2021/01/14 06:21:55;;;;;;;16.23;4.35;;;0.20;99.90;;;;;;5014010;28;20030;-59
2021/01/14 06:24:24;;;;;;;17.33;4.32;;;0.30;99.90;;;;;;5012431;28;20029;-59
2021/01/14 06:26:51;;;;;;;14.52;4.00;;;0.40;99.90;;;;;;5012372;28;20024;-56
2021/01/14 06:29:18;;;;;;;13.98;3.80;;;0.40;99.90;;;;;;5013105;28;20021;-59
2021/01/14 06:31:44;;;;;;;16.17;4.10;;;0.50;99.90;;;;;;5013736;28;20026;-58
2021/01/14 06:34:13;;;;;;;14.98;4.30;;;0.60;99.90;;;;;;5011479;28;20504;-61
2021/01/14 06:36:40;;;;;;;15.27;4.85;;;0.60;99.90;;;;;;5013094;28;20527;-59
2021/01/14 06:39:14;;;;;;;14.65;4.65;;;0.60;99.90;;;;;;5012720;28;20026;-61
2021/01/14 06:41:41;;;;;;;13.75;3.88;;;0.60;99.90;;;;;;5013172;28;20084;-61
2021/01/14 06:44:14;;;;;;;12.95;3.90;;;0.60;99.90;;;;;;5012929;28;20022;-59
2021/01/14 06:46:41;;;;;;;14.77;4.40;;;0.50;99.90;;;;;;5013202;28;20033;-59
2021/01/14 06:49:14;;;;;;;17.92;5.13;;;0.40;99.90;;;;;;5011401;28;20040;-59
2021/01/14 06:51:56;;;;;;;15.07;4.63;;;0.50;99.90;;;;;;5034559;23;20528;-60
2021/01/14 06:54:26;;;;;;;14.02;5.15;;;0.50;99.90;;;;;;5011406;28;20021;-61
2021/01/14 06:57:05;;;;;;;13.13;4.03;;;0.50;99.90;;;;;;5012942;28;20025;-60
2021/01/14 06:59:37;;;;;;;32.67;9.48;;;0.60;99.90;;;;;;5011162;28;20037;-55
2021/01/14 07:02:05;;;;;;;23.13;6.65;;;0.60;99.90;;;;;;5012726;28;20033;-62
2021/01/14 07:04:43;;;;;;;18.73;5.00;;;0.60;99.90;;;;;;4995388;28;20034;-61
2021/01/14 07:07:29;;;;;;;13.88;4.00;;;0.60;99.90;;;;;;4993629;28;20493;-62
2021/01/14 07:10:05;;;;;;;15.95;4.63;;;0.70;99.90;;;;;;5010804;28;20062;-60
2021/01/14 07:12:36;;;;;;;21.63;5.15;;;0.60;99.90;;;;;;5011028;28;20025;-55
2021/01/14 07:15:13;;;;;;;22.05;4.72;;;0.60;99.90;;;;;;5012631;28;20022;-61
2021/01/14 07:17:41;;;;;;;15.32;4.63;;;0.70;99.90;;;;;;5012547;28;20080;-61
2021/01/14 07:20:11;;;;;;;19.17;5.70;;;0.70;99.90;;;;;;5012237;28;20029;-63
2021/01/14 07:22:47;;;;;;;14.23;4.57;;;0.70;99.90;;;;;;5011480;28;20030;-61
2021/01/14 07:25:14;;;;;;;24.65;5.78;;;0.70;99.90;;;;;;5012463;28;20088;-61
2021/01/14 07:27:42;;;;;;;17.08;4.80;;;0.70;99.90;;;;;;5012296;28;20033;-61
2021/01/14 07:30:09;;;;;;;21.38;6.85;;;0.70;99.90;;;;;;5010803;28;20022;-62
2021/01/14 07:32:49;;;;;;;22.88;5.30;;;0.80;99.90;;;;;;5011261;28;20381;-60
2021/01/14 07:35:35;;;;;;;22.05;6.00;;;0.80;99.90;;;;;;5012558;28;20064;-60
2021/01/14 07:38:01;;;;;;;17.27;4.97;;;0.70;99.90;;;;;;5012065;28;20026;-59
2021/01/14 07:40:28;;;;;;;19.20;5.45;;;0.80;99.90;;;;;;5012093;28;20045;-63
2021/01/14 07:42:55;;;;;;;14.80;5.43;;;0.70;99.90;;;;;;5013002;28;20484;-62
2021/01/14 07:45:21;;;;;;;17.30;5.15;;;0.80;99.90;;;;;;5013403;28;20025;-61
2021/01/14 07:47:46;;;;;;;14.43;4.93;;;0.80;99.90;;;;;;5010066;28;20052;-61
2021/01/14 07:50:21;;;;;;;16.45;4.93;;;0.90;99.90;;;;;;5011397;28;20163;-57
2021/01/14 07:52:51;;;;;;;21.00;6.07;;;0.90;99.90;;;;;;5010500;28;20133;-59
2021/01/14 07:55:37;;;;;;;13.98;4.68;;;0.90;99.90;;;;;;5012229;28;20087;-54
2021/01/14 07:58:19;;;;;;;15.40;4.97;;;0.90;99.90;;;;;;5011969;28;20528;-59
2021/01/14 08:01:02;;;;;;;18.38;4.90;;;1.00;99.90;;;;;;5012026;28;20528;-54
2021/01/14 08:03:41;;;;;;;19.92;6.18;;;1.00;99.90;;;;;;5010663;28;20037;-62
2021/01/14 08:06:22;;;;;;;17.58;4.90;;;1.00;99.90;;;;;;5010919;28;20026;-61
2021/01/14 08:09:04;;;;;;;17.38;5.78;;;1.10;99.90;;;;;;5011131;28;20030;-59
2021/01/14 08:11:57;;;;;;;15.80;5.53;;;1.10;99.90;;;;;;5003381;28;20555;-65
2021/01/14 08:14:37;;;;;;;15.80;4.88;;;1.20;99.90;;;;;;4995261;28;20026;-61
2021/01/14 08:17:26;;;;;;;17.05;4.80;;;1.20;99.90;;;;;;5003641;28;20022;-60
2021/01/14 08:19:53;;;;;;;18.75;6.22;;;1.20;99.90;;;;;;4997022;28;20025;-60
2021/01/14 08:22:19;;;;;;;17.90;5.13;;;1.20;99.90;;;;;;5011402;28;20382;-62
2021/01/14 08:24:55;;;;;;;17.00;4.82;;;1.30;99.90;;;;;;4993786;28;20336;-63
2021/01/14 08:27:21;;;;;;;17.02;4.80;;;1.40;99.90;;;;;;5011788;28;20022;-61
2021/01/14 08:29:51;;;;;;;17.40;5.53;;;1.40;99.90;;;;;;5010371;28;20033;-61
2021/01/14 08:32:35;;;;;;;18.13;5.53;;;1.40;99.90;;;;;;5011257;28;20076;-63
2021/01/14 08:35:25;;;;;;;17.77;5.30;;;1.40;99.90;;;;;;5011604;28;20050;-63
2021/01/14 08:37:57;;;;;;;14.75;5.00;;;1.40;99.90;;;;;;5011348;28;20444;-60
2021/01/14 08:40:23;;;;;;;17.42;6.13;;;1.50;99.90;;;;;;5006780;28;20068;-65
2021/01/14 08:42:58;;;;;;;19.05;5.30;;;1.50;99.90;;;;;;5009850;28;20032;-63
2021/01/14 08:45:28;;;;;;;18.02;5.65;;;1.50;99.90;;;;;;5010645;28;20034;-66
2021/01/14 08:48:01;;;;;;;17.80;5.90;;;1.50;99.90;;;;;;5012010;28;20022;-63
2021/01/14 08:50:35;;;;;;;17.83;4.93;;;1.60;99.90;;;;;;5014377;28;20057;-67
2021/01/14 08:53:19;;;;;;;16.45;5.72;;;1.60;99.90;;;;;;4997695;28;20116;-65
2021/01/14 08:56:00;;;;;;;17.42;5.43;;;1.70;99.90;;;;;;5015010;28;20041;-65
2021/01/14 08:58:43;;;;;;;15.57;5.63;;;1.70;99.90;;;;;;5014539;28;20037;-67
2021/01/14 09:01:15;;;;;;;18.70;7.20;;;1.70;99.90;;;;;;4997182;28;20334;-64
2021/01/14 09:03:41;;;;;;;16.40;5.55;;;1.80;99.90;;;;;;4997460;28;20030;-66
2021/01/14 09:06:07;;;;;;;19.08;7.15;;;1.90;99.90;;;;;;5014729;28;20170;-67
2021/01/14 09:08:33;;;;;;;17.73;6.65;;;1.90;99.90;;;;;;4980490;28;20030;-66
2021/01/14 09:11:02;;;;;;;17.95;6.30;;;2.00;99.90;;;;;;4996856;28;20114;-66
2021/01/14 09:13:30;;;;;;;18.75;7.05;;;2.00;99.90;;;;;;5014119;28;20105;-63
2021/01/14 09:15:57;;;;;;;;;;;2.10;99.90;;;;;;5008974;28;20065;-67
2021/01/14 09:18:34;;;;;;;18.27;6.43;;;2.20;99.90;;;;;;5013254;28;20357;-65
2021/01/14 09:21:00;;;;;;;16.38;6.53;;;2.20;99.90;;;;;;5014328;28;20116;-67
2021/01/14 09:23:34;;;;;;;20.58;8.35;;;2.10;99.90;;;;;;5015263;28;20026;-62
2021/01/14 09:26:04;;;;;;;20.23;6.55;;;2.20;99.90;;;;;;5005449;28;20120;-64
2021/01/14 09:28:32;;;;;;;17.38;6.40;;;2.10;99.90;;;;;;5005870;28;20040;-63
2021/01/14 09:31:05;;;;;;;17.10;6.78;;;2.10;99.90;;;;;;5014335;28;20056;-63
2021/01/14 09:33:36;;;;;;;18.15;6.10;;;2.20;99.90;;;;;;5014901;28;20029;-57
2021/01/14 09:36:11;;;;;;;17.33;7.50;;;2.20;99.90;;;;;;5012900;28;20493;-64
2021/01/14 09:38:54;;;;;;;16.92;6.18;;;2.30;99.90;;;;;;5013894;28;20252;-60
2021/01/14 09:41:33;;;;;;;26.67;11.65;;;2.10;99.90;;;;;;5014623;28;20407;-62
2021/01/14 09:44:02;;;;;;;35.45;16.83;;;2.10;99.90;;;;;;5014053;28;20108;-62
2021/01/14 09:46:37;;;;;;;36.00;16.17;;;2.30;99.90;;;;;;5013588;28;20397;-63
2021/01/14 09:49:05;;;;;;;26.05;9.65;;;2.40;99.90;;;;;;5012404;28;20033;-61
2021/01/14 09:51:35;;;;;;;22.27;10.00;;;2.40;99.90;;;;;;5012223;28;20030;-61
2021/01/14 09:54:03;;;;;;;21.98;8.32;;;2.60;99.90;;;;;;5012805;28;20042;-59
2021/01/14 09:56:35;;;;;;;21.75;8.73;;;2.60;99.90;;;;;;5009946;28;20088;-62
2021/01/14 09:59:29;;;;;;;21.10;8.40;;;2.80;99.90;;;;;;5011642;28;20041;-63
2021/01/14 10:02:12;;;;;;;18.95;6.38;;;2.90;99.90;;;;;;5010200;28;20030;-61
2021/01/14 10:04:43;;;;;;;16.58;6.50;;;3.00;99.90;;;;;;5013109;28;20088;-63
2021/01/14 10:07:15;;;;;;;24.45;7.53;;;3.00;99.90;;;;;;5012472;28;20076;-62
2021/01/14 10:09:42;;;;;;;17.92;6.72;;;3.00;99.90;;;;;;5011745;28;20022;-62
2021/01/14 10:12:09;;;;;;;21.48;7.00;;;3.10;99.90;;;;;;5012560;28;20026;-61
2021/01/14 10:14:35;;;;;;;18.52;6.35;;;2.90;99.90;;;;;;5012022;28;20030;-63
2021/01/14 10:17:17;;;;;;;18.30;6.40;;;2.90;99.90;;;;;;5013782;28;20097;-63
2021/01/14 10:19:48;;;;;;;17.50;6.57;;;2.90;99.90;;;;;;5011719;28;20490;-63
2021/01/14 10:22:14;;;;;;;17.75;6.25;;;2.80;99.90;;;;;;5013949;28;20022;-63
2021/01/14 10:24:40;;;;;;;17.88;6.75;;;2.70;99.90;;;;;;5011899;28;20030;-60
2021/01/14 10:27:17;;;;;;;17.25;6.68;;;2.70;99.90;;;;;;5013508;28;20030;-60
2021/01/14 10:29:44;;;;;;;19.17;6.80;;;2.70;99.90;;;;;;5011035;28;20026;-61
2021/01/14 10:32:21;;;;;;;16.48;6.40;;;2.70;99.90;;;;;;5012329;28;20022;-61
2021/01/14 10:34:52;;;;;;;19.63;6.70;;;2.60;99.90;;;;;;5012018;28;20124;-59
2021/01/14 10:37:27;;;;;;;19.52;6.57;;;2.50;99.90;;;;;;5012030;28;20029;-61
2021/01/14 10:40:14;;;;;;;18.15;6.15;;;2.50;99.90;;;;;;5011328;28;20054;-60
2021/01/14 10:42:47;;;;;;;19.08;6.80;;;2.40;99.90;;;;;;5013239;28;20497;-61
2021/01/14 10:45:13;;;;;;;22.08;7.63;;;2.40;99.90;;;;;;5013143;28;20074;-62
2021/01/14 10:47:41;;;;;;;19.60;6.38;;;2.50;99.90;;;;;;5012683;28;20026;-62
2021/01/14 10:50:23;;;;;;;18.02;5.82;;;2.50;99.90;;;;;;5012445;28;20033;-61
2021/01/14 10:53:04;;;;;;;20.88;6.68;;;2.60;99.90;;;;;;5013223;28;20377;-62
2021/01/14 10:55:30;;;;;;;18.20;6.10;;;2.60;99.90;;;;;;5012115;28;20034;-62
2021/01/14 10:57:57;;;;;;;18.75;6.45;;;2.70;99.90;;;;;;5012671;28;20030;-60
2021/01/14 11:00:43;;;;;;;18.27;6.63;;;2.70;99.90;;;;;;5010669;28;20033;-59
2021/01/14 11:03:12;;;;;;;26.20;7.95;;;2.70;99.90;;;;;;5011300;28;20122;-59
2021/01/14 11:05:45;;;;;;;16.55;7.13;;;2.70;99.90;;;;;;5011474;28;20098;-59
2021/01/14 11:08:16;;;;;;;18.55;6.30;;;2.80;99.90;;;;;;5011344;28;20076;-60
2021/01/14 11:10:44;;;;;;;17.38;5.97;;;2.80;99.90;;;;;;5010773;28;20136;-57
2021/01/14 11:13:10;;;;;;;18.75;6.80;;;2.90;99.90;;;;;;5012920;28;20101;-58
2021/01/14 11:15:37;;;;;;;20.02;7.10;;;2.80;99.90;;;;;;5013575;28;20022;-56
2021/01/14 11:18:04;;;;;;;17.95;6.82;;;2.80;99.90;;;;;;5013161;28;20026;-56
2021/01/14 11:20:30;;;;;;;17.55;6.38;;;2.80;99.90;;;;;;5013266;28;20084;-59
2021/01/14 11:22:56;;;;;;;18.50;7.30;;;2.80;99.90;;;;;;5015085;28;20409;-60
2021/01/14 11:25:22;;;;;;;23.42;8.43;;;2.80;99.90;;;;;;5015384;28;20030;-57
2021/01/14 11:27:48;;;;;;;20.27;7.13;;;2.90;99.90;;;;;;5014305;28;20030;-60
2021/01/14 11:30:14;;;;;;;18.98;7.35;;;2.90;99.90;;;;;;5014006;28;20026;-54
2021/01/14 11:32:40;;;;;;;17.45;6.82;;;2.90;99.90;;;;;;5011665;28;20045;-62
2021/01/14 11:35:07;;;;;;;17.73;6.90;;;3.00;99.90;;;;;;5011526;28;20025;-60
2021/01/14 11:37:32;;;;;;;18.40;7.05;;;3.20;99.90;;;;;;5010871;28;20026;-59
2021/01/14 11:39:58;;;;;;;19.60;7.32;;;3.30;99.90;;;;;;5010093;28;20041;-59
2021/01/14 11:42:28;;;;;;;19.63;7.32;;;3.50;99.90;;;;;;5010672;28;20033;-57
2021/01/14 11:44:54;;;;;;;19.23;7.75;;;3.50;99.90;;;;;;5011067;28;20505;-61
2021/01/14 11:47:20;;;;;;;22.48;7.30;;;3.60;99.90;;;;;;5012498;28;20084;-59
2021/01/14 11:49:46;;;;;;;19.55;8.05;;;3.70;99.90;;;;;;5011654;28;20441;-60
2021/01/14 11:52:11;;;;;;;21.73;8.00;;;3.70;99.90;;;;;;5012027;28;20462;-59
2021/01/14 11:54:37;;;;;;;26.00;8.65;;;3.50;99.90;;;;;;5014277;28;20045;-60
2021/01/14 11:57:03;;;;;;;19.60;7.32;;;3.50;99.90;;;;;;5011959;28;20021;-58
2021/01/14 11:59:29;;;;;;;21.45;6.80;;;3.40;99.90;;;;;;5011855;28;20068;-58
2021/01/14 12:01:59;;;;;;;17.10;7.13;;;3.50;99.90;;;;;;5010849;28;20022;-60
2021/01/14 12:04:25;;;;;;;19.02;7.20;;;3.50;99.90;;;;;;5012300;28;20030;-56
2021/01/14 12:06:54;;;;;;;21.02;8.98;;;3.50;99.90;;;;;;5010483;28;20080;-59
2021/01/14 12:09:20;;;;;;;19.25;7.32;;;3.50;99.90;;;;;;5011398;28;20097;-56
2021/01/14 12:11:46;;;;;;;21.00;7.72;;;3.40;99.90;;;;;;5010498;28;20033;-59
2021/01/14 12:14:12;;;;;;;26.55;9.43;;;3.40;99.90;;;;;;5012030;28;20022;-60
2021/01/14 12:16:38;;;;;;;23.45;9.15;;;3.40;99.90;;;;;;5011718;28;20040;-56
2021/01/14 12:19:04;;;;;;;21.50;9.40;;;3.40;99.90;;;;;;5011183;28;20116;-59
2021/01/14 12:21:30;;;;;;;20.60;8.23;;;3.30;99.90;;;;;;5007683;28;20109;-60
2021/01/14 12:23:55;;;;;;;18.70;7.75;;;3.30;99.90;;;;;;5010330;28;20462;-58
2021/01/14 12:26:21;;;;;;;19.55;7.88;;;3.20;99.90;;;;;;5010126;28;20066;-57
2021/01/14 12:28:47;;;;;;;22.65;9.13;;;3.20;99.90;;;;;;5008531;28;20504;-56
2021/01/14 12:31:13;;;;;;;18.55;7.75;;;3.20;99.90;;;;;;5010707;28;20022;-60
2021/01/14 12:33:39;;;;;;;20.50;7.97;;;3.20;99.90;;;;;;5011254;28;20037;-60
2021/01/14 12:36:06;;;;;;;20.25;8.00;;;3.20;99.90;;;;;;5011486;28;20133;-60
2021/01/14 12:38:32;;;;;;;19.95;8.45;;;3.30;99.90;;;;;;5009430;28;20049;-61
2021/01/14 12:40:57;;;;;;;18.73;7.93;;;3.20;99.90;;;;;;5011749;28;20492;-60
2021/01/14 12:43:23;;;;;;;20.98;8.45;;;3.30;99.90;;;;;;5010445;28;20427;-57
2021/01/14 12:45:52;;;;;;;21.05;8.73;;;3.20;99.90;;;;;;5010334;28;20029;-62
2021/01/14 12:48:19;;;;;;;20.60;8.48;;;3.10;99.90;;;;;;5010390;28;20045;-59
2021/01/14 12:50:45;;;;;;;18.60;7.65;;;3.20;99.90;;;;;;5025047;23;20049;-59
2021/01/14 12:53:11;;;;;;;18.65;7.57;;;3.20;99.90;;;;;;5012238;28;20029;-56
2021/01/14 12:55:36;;;;;;;19.45;8.13;;;3.30;99.90;;;;;;5014082;28;20105;-55
2021/01/14 12:58:03;;;;;;;22.05;8.20;;;3.20;99.90;;;;;;5013331;28;20498;-57
2021/01/14 13:00:29;;;;;;;22.50;8.65;;;3.30;99.90;;;;;;5011027;28;20033;-59